createdAt,value
2018-01-29T00:00:55.544Z,57.85
2018-01-29T00:01:58.006Z,57.82
2018-01-29T00:03:00.463Z,57.93
2018-01-29T00:04:02.941Z,57.86
2018-01-29T00:05:05.422Z,57.88
2018-01-29T00:06:07.884Z,57.89
2018-01-29T00:07:10.350Z,57.92
2018-01-29T00:08:12.819Z,57.87
2018-01-29T00:09:15.296Z,57.79
2018-01-29T00:10:17.788Z,57.94
2018-01-29T00:11:20.260Z,57.95
2018-01-29T00:12:22.879Z,57.92
2018-01-29T00:13:25.344Z,57.94
2018-01-29T00:14:27.812Z,57.94
2018-01-29T00:15:30.286Z,58.41
2018-01-29T00:16:32.751Z,58.97
2018-01-29T00:17:35.231Z,58.91
2018-01-29T00:18:37.706Z,58.68
2018-01-29T00:19:40.175Z,58.59
2018-01-29T00:20:42.660Z,58.55
2018-01-29T00:21:45.123Z,58.66
2018-01-29T00:22:47.595Z,58.54
2018-01-29T00:23:50.069Z,58.52
2018-01-29T00:24:52.544Z,58.51
2018-01-29T00:25:55.021Z,58.44
2018-01-29T00:26:57.480Z,58.55
2018-01-29T00:27:59.952Z,58.63
2018-01-29T00:29:02.419Z,58.66
2018-01-29T00:30:04.882Z,58.67
2018-01-29T00:31:07.342Z,58.63
2018-01-29T00:32:09.808Z,58.62
2018-01-29T00:33:12.290Z,58.74
2018-01-29T00:34:14.824Z,58.74
2018-01-29T00:35:17.271Z,58.71
2018-01-29T00:36:19.745Z,58.78
2018-01-29T00:37:22.229Z,58.83
2018-01-29T00:38:24.708Z,58.89
2018-01-29T00:39:27.171Z,58.96
2018-01-29T00:40:29.648Z,58.95
2018-01-29T00:41:32.128Z,58.93
2018-01-29T00:42:34.591Z,58.96
2018-01-29T00:43:37.064Z,58.97
2018-01-29T00:44:39.541Z,58.99
2018-01-29T00:45:42.007Z,59.05
2018-01-29T00:46:44.471Z,59.06
2018-01-29T00:47:46.935Z,59.12
2018-01-29T00:48:49.398Z,59.16
2018-01-29T00:49:51.863Z,59.14
2018-01-29T00:50:54.372Z,59.15
2018-01-29T00:51:56.839Z,59.04
2018-01-29T00:52:59.298Z,58.96
2018-01-29T00:54:01.775Z,59.00
2018-01-29T00:55:04.255Z,59.00
2018-01-29T00:56:06.723Z,59.03
2018-01-29T00:57:09.212Z,59.05
2018-01-29T00:58:11.688Z,58.88
2018-01-29T00:59:14.164Z,58.92
2018-01-29T01:00:16.622Z,59.01
2018-01-29T01:01:19.087Z,59.04
2018-01-29T01:02:21.551Z,59.08
2018-01-29T01:03:24.025Z,59.13
2018-01-29T01:04:26.500Z,59.17
2018-01-29T01:05:28.967Z,59.11
2018-01-29T01:06:31.451Z,59.21
2018-01-29T01:07:33.907Z,59.27
2018-01-29T01:08:36.374Z,59.19
2018-01-29T01:09:38.848Z,59.25
2018-01-29T01:10:41.310Z,59.27
2018-01-29T01:11:43.793Z,59.18
2018-01-29T01:12:46.262Z,59.16
2018-01-29T01:13:48.737Z,59.36
2018-01-29T01:14:51.221Z,59.48
2018-01-29T01:15:53.700Z,59.39
2018-01-29T01:16:56.163Z,59.37
2018-01-29T01:17:58.645Z,59.47
2018-01-29T01:19:01.118Z,59.37
2018-01-29T01:20:03.575Z,59.33
2018-01-29T01:21:06.049Z,59.49
2018-01-29T01:22:08.515Z,59.51
2018-01-29T01:23:10.996Z,59.53
2018-01-29T01:24:13.468Z,59.55
2018-01-29T01:25:15.946Z,59.67
2018-01-29T01:26:18.420Z,59.62
2018-01-29T01:27:20.887Z,59.65
2018-01-29T01:28:23.462Z,59.68
2018-01-29T01:29:25.917Z,59.71
2018-01-29T01:30:28.397Z,59.78
2018-01-29T01:31:30.854Z,59.89
2018-01-29T01:32:33.320Z,59.90
2018-01-29T01:33:35.786Z,59.89
2018-01-29T01:34:38.254Z,59.88
2018-01-29T01:35:40.715Z,59.84
2018-01-29T01:36:43.193Z,59.80
2018-01-29T01:37:45.654Z,59.88
2018-01-29T01:38:48.128Z,59.90
2018-01-29T01:39:50.590Z,59.87
2018-01-29T01:40:53.065Z,59.87
2018-01-29T01:41:55.534Z,59.88
2018-01-29T01:42:57.999Z,59.81
2018-01-29T01:44:00.460Z,59.78
2018-01-29T01:45:02.918Z,59.75
2018-01-29T01:46:05.396Z,59.75
2018-01-29T01:47:07.876Z,59.94
2018-01-29T01:48:10.352Z,60.00
2018-01-29T01:49:12.840Z,59.98
2018-01-29T01:50:15.325Z,60.02
2018-01-29T01:51:17.806Z,60.09
2018-01-29T01:52:20.281Z,60.13
2018-01-29T01:53:22.764Z,60.09
2018-01-29T01:54:25.249Z,60.08
2018-01-29T01:55:27.737Z,60.12
2018-01-29T01:56:30.313Z,60.17
2018-01-29T01:57:32.788Z,60.21
2018-01-29T01:58:35.246Z,60.17
2018-01-29T01:59:37.721Z,60.04
2018-01-29T02:00:40.197Z,60.04
2018-01-29T02:01:42.680Z,60.17
2018-01-29T02:02:45.152Z,60.17
2018-01-29T02:03:47.657Z,60.19
2018-01-29T02:04:50.118Z,60.32
2018-01-29T02:05:52.601Z,60.30
2018-01-29T02:06:55.081Z,60.31
2018-01-29T02:07:57.548Z,60.35
2018-01-29T02:09:00.028Z,60.34
2018-01-29T02:10:02.494Z,60.29
2018-01-29T02:11:04.954Z,60.31
2018-01-29T02:12:07.433Z,60.14
2018-01-29T02:13:09.913Z,60.12
2018-01-29T02:14:12.397Z,60.11
2018-01-29T02:15:14.869Z,60.30
2018-01-29T02:16:17.331Z,60.56
2018-01-29T02:17:19.805Z,60.67
2018-01-29T02:18:22.281Z,60.66
2018-01-29T02:19:24.757Z,60.76
2018-01-29T02:20:27.218Z,60.79
2018-01-29T02:21:29.695Z,60.75
2018-01-29T02:22:32.173Z,60.89
2018-01-29T02:23:34.644Z,60.99
2018-01-29T02:24:37.121Z,60.90
2018-01-29T02:25:39.608Z,60.71
2018-01-29T02:26:42.173Z,60.70
2018-01-29T02:27:44.635Z,60.66
2018-01-29T02:28:47.111Z,60.74
2018-01-29T02:29:49.609Z,61.05
2018-01-29T02:30:52.082Z,61.06
2018-01-29T02:31:54.538Z,60.95
2018-01-29T02:32:57.016Z,60.92
2018-01-29T02:33:59.489Z,60.82
2018-01-29T02:35:01.969Z,60.92
2018-01-29T02:36:04.427Z,61.13
2018-01-29T02:37:06.907Z,61.31
2018-01-29T02:38:09.366Z,61.26
2018-01-29T02:39:11.827Z,61.38
2018-01-29T02:40:14.286Z,61.73
2018-01-29T02:41:16.746Z,61.82
2018-01-29T02:42:19.215Z,62.15
2018-01-29T02:43:21.682Z,60.52
2018-01-29T02:44:24.160Z,60.25
2018-01-29T02:45:26.629Z,60.69
2018-01-29T02:46:29.112Z,59.45
2018-01-29T02:47:31.589Z,59.76
2018-01-29T02:48:34.055Z,59.56
2018-01-29T02:49:36.515Z,58.72
2018-01-29T02:50:38.994Z,58.55
2018-01-29T02:51:41.474Z,58.23
2018-01-29T02:52:43.935Z,58.03
2018-01-29T02:53:46.427Z,57.42
2018-01-29T02:54:48.900Z,56.91
2018-01-29T02:55:51.362Z,57.03
2018-01-29T02:56:53.831Z,57.06
2018-01-29T02:57:56.321Z,56.92
2018-01-29T02:58:58.796Z,56.79
2018-01-29T03:00:01.254Z,56.71
2018-01-29T03:01:03.730Z,56.79
2018-01-29T03:02:06.204Z,56.58
2018-01-29T03:03:08.667Z,56.53
2018-01-29T03:04:11.156Z,56.60
2018-01-29T03:05:13.637Z,56.56
2018-01-29T03:06:16.103Z,56.58
2018-01-29T03:07:18.581Z,56.63
2018-01-29T03:08:21.216Z,56.71
2018-01-29T03:09:23.674Z,56.73
2018-01-29T03:10:26.153Z,57.05
2018-01-29T03:11:28.633Z,57.34
2018-01-29T03:12:31.109Z,57.26
2018-01-29T03:13:33.577Z,57.21
2018-01-29T03:14:36.034Z,57.37
2018-01-29T03:15:38.514Z,57.14
2018-01-29T03:16:40.979Z,57.11
2018-01-29T03:17:43.442Z,56.97
2018-01-29T03:18:45.907Z,56.95
2018-01-29T03:19:48.380Z,57.02
2018-01-29T03:20:50.833Z,56.97
2018-01-29T03:21:53.295Z,56.84
2018-01-29T03:22:55.769Z,56.77
2018-01-29T03:23:58.238Z,56.82
2018-01-29T03:25:00.708Z,56.74
2018-01-29T03:26:03.176Z,56.79
2018-01-29T03:27:05.650Z,56.79
2018-01-29T03:28:08.120Z,57.01
2018-01-29T03:29:10.587Z,56.87
2018-01-29T03:30:13.049Z,56.98
2018-01-29T03:31:15.529Z,57.18
2018-01-29T03:32:18.000Z,57.71
2018-01-29T03:33:20.476Z,57.85
2018-01-29T03:34:22.953Z,57.48
2018-01-29T03:35:25.434Z,57.23
2018-01-29T03:36:27.916Z,57.12
2018-01-29T03:37:30.378Z,57.00
2018-01-29T03:38:32.839Z,57.00
2018-01-29T03:39:35.303Z,57.11
2018-01-29T03:40:37.777Z,57.13
2018-01-29T03:41:40.238Z,57.03
2018-01-29T03:42:42.712Z,57.13
2018-01-29T03:43:45.175Z,56.98
2018-01-29T03:44:47.635Z,56.78
2018-01-29T03:45:50.094Z,56.73
2018-01-29T03:46:52.573Z,56.82
2018-01-29T03:47:55.114Z,56.67
2018-01-29T03:48:57.571Z,56.60
2018-01-29T03:50:00.052Z,56.64
2018-01-29T03:51:02.540Z,56.89
2018-01-29T03:52:05.017Z,56.98
2018-01-29T03:53:07.490Z,56.75
2018-01-29T03:54:09.959Z,56.54
2018-01-29T03:55:12.418Z,56.57
2018-01-29T03:56:14.890Z,56.81
2018-01-29T03:57:17.385Z,57.11
2018-01-29T03:58:19.860Z,57.08
2018-01-29T03:59:22.356Z,57.05
2018-01-29T04:00:24.833Z,56.92
2018-01-29T04:01:27.320Z,57.16
2018-01-29T04:02:29.801Z,57.22
2018-01-29T04:03:32.291Z,57.19
2018-01-29T04:04:34.764Z,57.23
2018-01-29T04:05:37.240Z,57.05
2018-01-29T04:06:39.718Z,57.08
2018-01-29T04:07:42.228Z,56.90
2018-01-29T04:08:44.691Z,56.89
2018-01-29T04:09:47.156Z,57.06
2018-01-29T04:10:49.611Z,57.16
2018-01-29T04:11:52.085Z,57.29
2018-01-29T04:12:54.547Z,56.82
2018-01-29T04:13:57.011Z,56.70
2018-01-29T04:14:59.492Z,56.77
2018-01-29T04:16:01.980Z,56.83
2018-01-29T04:17:04.452Z,56.71
2018-01-29T04:18:06.911Z,56.67
2018-01-29T04:19:09.375Z,56.51
2018-01-29T04:20:11.849Z,56.54
2018-01-29T04:21:14.310Z,56.64
2018-01-29T04:22:16.789Z,56.56
2018-01-29T04:23:19.256Z,56.66
2018-01-29T04:24:21.714Z,56.99
2018-01-29T04:25:24.562Z,57.04
2018-01-29T04:26:27.046Z,57.19
2018-01-29T04:27:29.510Z,56.91
2018-01-29T04:28:31.971Z,56.71
2018-01-29T04:29:34.439Z,56.68
2018-01-29T04:30:36.903Z,56.93
2018-01-29T04:31:39.371Z,57.49
2018-01-29T04:32:41.845Z,57.29
2018-01-29T04:33:44.325Z,57.12
2018-01-29T04:34:46.801Z,57.26
2018-01-29T04:35:49.280Z,57.28
2018-01-29T04:36:51.743Z,57.17
2018-01-29T04:37:54.206Z,56.98
2018-01-29T04:38:56.666Z,56.83
2018-01-29T04:39:59.135Z,56.71
2018-01-29T04:41:01.590Z,56.75
2018-01-29T04:42:04.051Z,56.80
2018-01-29T04:43:06.528Z,56.75
2018-01-29T04:44:09.007Z,56.67
2018-01-29T04:45:11.471Z,56.79
2018-01-29T04:46:16.368Z,57.18
2018-01-29T04:47:18.839Z,57.22
2018-01-29T04:48:21.448Z,57.09
2018-01-29T04:49:23.922Z,57.01
2018-01-29T04:50:26.382Z,57.14
2018-01-29T04:51:28.861Z,57.57
2018-01-29T04:52:31.349Z,58.14
2018-01-29T04:53:33.810Z,57.85
2018-01-29T04:54:36.284Z,57.74
2018-01-29T04:55:38.780Z,57.41
2018-01-29T04:56:41.254Z,57.35
2018-01-29T04:57:43.710Z,57.19
2018-01-29T04:58:46.185Z,57.61
2018-01-29T04:59:48.647Z,57.95
2018-01-29T05:00:51.103Z,57.50
2018-01-29T05:01:53.604Z,57.28
2018-01-29T05:02:56.070Z,57.10
2018-01-29T05:03:58.536Z,56.72
2018-01-29T05:05:00.994Z,56.62
2018-01-29T05:06:03.458Z,56.44
2018-01-29T05:07:05.940Z,56.36
2018-01-29T05:08:08.412Z,57.01
2018-01-29T05:09:10.889Z,57.33
2018-01-29T05:10:13.352Z,57.62
2018-01-29T05:11:15.828Z,58.06
2018-01-29T05:12:18.291Z,58.03
2018-01-29T05:13:20.755Z,58.00
2018-01-29T05:14:23.234Z,57.47
2018-01-29T05:15:25.704Z,57.25
2018-01-29T05:16:28.159Z,57.52
2018-01-29T05:17:30.632Z,57.65
2018-01-29T05:18:33.125Z,57.72
2018-01-29T05:19:35.602Z,57.72
2018-01-29T05:20:38.062Z,57.77
2018-01-29T05:21:40.588Z,58.16
2018-01-29T05:22:43.046Z,57.46
2018-01-29T05:23:45.510Z,57.59
2018-01-29T05:24:48.007Z,57.86
2018-01-29T05:25:50.451Z,57.52
2018-01-29T05:26:52.916Z,57.48
2018-01-29T05:27:55.394Z,57.40
2018-01-29T05:28:57.858Z,57.08
2018-01-29T05:30:00.318Z,56.83
2018-01-29T05:31:02.783Z,56.75
2018-01-29T05:32:05.246Z,56.83
2018-01-29T05:33:07.724Z,56.78
2018-01-29T05:34:10.201Z,57.28
2018-01-29T05:35:14.236Z,57.23
2018-01-29T05:36:31.561Z,57.05
2018-01-29T05:39:16.736Z,56.89
2018-01-29T05:40:19.202Z,57.31
2018-01-29T05:41:21.728Z,56.95
2018-01-29T05:42:24.154Z,56.55
2018-01-29T05:43:26.632Z,56.46
2018-01-29T05:44:29.106Z,57.12
2018-01-29T05:45:31.585Z,57.52
2018-01-29T05:46:34.061Z,57.00
2018-01-29T05:47:36.560Z,56.87
2018-01-29T05:48:39.065Z,56.70
2018-01-29T05:49:41.553Z,56.76
2018-01-29T05:50:44.014Z,56.94
2018-01-29T05:51:46.565Z,57.22
2018-01-29T05:52:48.977Z,56.71
2018-01-29T05:53:51.467Z,56.68
2018-01-29T05:54:53.931Z,56.75
2018-01-29T05:55:56.408Z,56.50
2018-01-29T05:56:58.892Z,57.92
2018-01-29T05:58:01.402Z,58.03
2018-01-29T05:59:03.890Z,57.97
2018-01-29T06:00:06.351Z,57.45
2018-01-29T06:01:08.819Z,57.79
2018-01-29T06:02:11.293Z,57.91
2018-01-29T06:03:13.768Z,57.53
2018-01-29T06:04:16.266Z,56.96
2018-01-29T06:05:18.815Z,56.40
2018-01-29T06:06:21.279Z,55.98
2018-01-29T06:07:23.761Z,55.56
2018-01-29T06:08:26.237Z,54.58
2018-01-29T06:09:28.722Z,54.64
2018-01-29T06:10:31.196Z,54.58
2018-01-29T06:11:33.668Z,54.49
2018-01-29T06:12:36.131Z,54.03
2018-01-29T06:13:38.607Z,53.88
2018-01-29T06:14:41.104Z,53.99
2018-01-29T06:15:43.567Z,53.83
2018-01-29T06:16:46.054Z,53.88
2018-01-29T06:17:48.611Z,53.81
2018-01-29T06:18:51.129Z,53.76
2018-01-29T06:19:53.587Z,53.61
2018-01-29T06:20:56.061Z,53.53
2018-01-29T06:21:58.545Z,53.62
2018-01-29T06:23:01.017Z,53.76
2018-01-29T06:24:03.497Z,53.59
2018-01-29T06:25:05.978Z,53.54
2018-01-29T06:26:08.465Z,53.50
2018-01-29T06:27:10.947Z,53.20
2018-01-29T06:28:13.414Z,53.32
2018-01-29T06:29:15.897Z,53.23
2018-01-29T06:30:18.401Z,53.05
2018-01-29T06:31:20.891Z,53.04
2018-01-29T06:32:23.364Z,52.97
2018-01-29T06:33:25.826Z,52.76
2018-01-29T06:34:28.302Z,52.73
2018-01-29T06:35:30.786Z,52.50
2018-01-29T06:36:33.261Z,52.46
2018-01-29T06:37:35.997Z,52.46
2018-01-29T06:38:38.627Z,52.44
2018-01-29T06:39:41.119Z,52.63
2018-01-29T06:40:43.644Z,52.63
2018-01-29T06:41:46.120Z,52.70
2018-01-29T06:42:48.626Z,52.67
2018-01-29T06:43:51.108Z,52.82
2018-01-29T06:44:53.589Z,52.87
2018-01-29T06:45:56.133Z,52.93
2018-01-29T06:46:58.599Z,52.94
2018-01-29T06:48:01.065Z,52.59
2018-01-29T06:49:03.537Z,52.31
2018-01-29T06:50:06.017Z,52.28
2018-01-29T06:51:08.517Z,52.20
2018-01-29T06:52:10.992Z,52.02
2018-01-29T06:53:13.454Z,52.15
2018-01-29T06:54:15.911Z,52.20
2018-01-29T06:55:18.388Z,52.32
2018-01-29T06:56:20.885Z,52.35
2018-01-29T06:57:23.369Z,52.32
2018-01-29T06:58:25.842Z,52.23
2018-01-29T06:59:28.369Z,52.24
2018-01-29T07:00:30.867Z,52.32
2018-01-29T07:01:33.351Z,52.57
2018-01-29T07:02:35.833Z,52.57
2018-01-29T07:03:38.321Z,52.45
2018-01-29T07:04:40.818Z,52.38
2018-01-29T07:05:43.285Z,52.40
2018-01-29T07:06:45.781Z,52.26
2018-01-29T07:07:48.248Z,52.16
2018-01-29T07:08:50.713Z,52.22
2018-01-29T07:09:53.185Z,52.29
2018-01-29T07:10:55.665Z,52.43
2018-01-29T07:11:58.150Z,52.56
2018-01-29T07:13:00.643Z,52.58
2018-01-29T07:14:03.181Z,52.64
2018-01-29T07:15:05.642Z,52.56
2018-01-29T07:16:08.118Z,52.50
2018-01-29T07:17:10.599Z,52.72
2018-01-29T07:18:13.067Z,52.36
2018-01-29T07:19:15.537Z,52.06
2018-01-29T07:20:18.011Z,52.22
2018-01-29T07:21:20.492Z,52.15
2018-01-29T07:22:22.994Z,52.10
2018-01-29T07:23:25.458Z,52.14
2018-01-29T07:24:27.933Z,52.34
2018-01-29T07:25:30.410Z,52.38
2018-01-29T07:26:32.893Z,52.38
2018-01-29T07:27:35.386Z,52.17
2018-01-29T07:28:37.851Z,51.99
2018-01-29T07:29:40.333Z,51.86
2018-01-29T07:30:42.805Z,51.87
2018-01-29T07:31:45.329Z,51.88
2018-01-29T07:32:47.808Z,52.90
2018-01-29T07:33:50.278Z,53.32
2018-01-29T07:34:52.761Z,53.29
2018-01-29T07:35:55.244Z,53.37
2018-01-29T07:36:57.750Z,53.63
2018-01-29T07:38:00.227Z,54.13
2018-01-29T07:39:02.757Z,54.97
2018-01-29T07:40:05.200Z,54.66
2018-01-29T07:41:07.682Z,54.29
2018-01-29T07:42:10.189Z,54.05
2018-01-29T07:43:12.882Z,54.45
2018-01-29T07:44:15.357Z,54.44
2018-01-29T07:45:17.841Z,54.28
2018-01-29T07:46:20.320Z,54.22
2018-01-29T07:47:22.824Z,54.25
2018-01-29T07:48:25.301Z,53.74
2018-01-29T07:49:27.801Z,53.32
2018-01-29T07:50:30.280Z,53.54
2018-01-29T07:51:32.755Z,53.22
2018-01-29T07:52:35.253Z,53.00
2018-01-29T07:53:37.737Z,52.94
2018-01-29T07:54:40.211Z,52.74
2018-01-29T07:55:42.697Z,52.58
2018-01-29T07:56:45.166Z,52.39
2018-01-29T07:57:47.667Z,52.14
2018-01-29T07:58:50.145Z,51.65
2018-01-29T07:59:52.619Z,51.39
2018-01-29T08:00:55.100Z,51.28
2018-01-29T08:01:57.567Z,51.08
2018-01-29T08:03:00.079Z,51.00
2018-01-29T08:04:02.548Z,50.87
2018-01-29T08:05:05.014Z,50.75
2018-01-29T08:06:07.591Z,50.60
2018-01-29T08:07:10.077Z,50.37
2018-01-29T08:08:12.583Z,50.23
2018-01-29T08:09:15.057Z,50.06
2018-01-29T08:10:17.573Z,49.97
2018-01-29T08:11:20.038Z,49.84
2018-01-29T08:12:22.516Z,49.73
2018-01-29T08:13:25.013Z,49.64
2018-01-29T08:14:27.501Z,49.50
2018-01-29T08:15:29.967Z,49.42
2018-01-29T08:16:32.433Z,49.37
2018-01-29T08:17:34.908Z,49.29
2018-01-29T08:18:37.402Z,49.29
2018-01-29T08:19:39.881Z,49.14
2018-01-29T08:20:42.358Z,49.01
2018-01-29T08:21:44.828Z,48.94
2018-01-29T08:22:47.327Z,48.73
2018-01-29T08:23:49.820Z,48.77
2018-01-29T08:24:52.346Z,48.68
2018-01-29T08:25:54.825Z,48.53
2018-01-29T08:26:57.759Z,48.55
2018-01-29T08:28:00.245Z,48.47
2018-01-29T08:29:02.727Z,48.40
2018-01-29T08:30:05.188Z,48.39
2018-01-29T08:31:07.664Z,48.31
2018-01-29T08:32:10.127Z,48.27
2018-01-29T08:33:12.591Z,48.17
2018-01-29T08:34:15.093Z,48.17
2018-01-29T08:35:17.569Z,48.19
2018-01-29T08:36:20.030Z,48.19
2018-01-29T08:37:22.508Z,48.23
2018-01-29T08:38:24.974Z,48.20
2018-01-29T08:39:27.479Z,48.16
2018-01-29T08:40:30.024Z,48.04
2018-01-29T08:41:32.486Z,48.04
2018-01-29T08:42:35.043Z,47.98
2018-01-29T08:43:37.623Z,48.00
2018-01-29T08:44:40.121Z,47.96
2018-01-29T08:45:42.625Z,47.91
2018-01-29T08:46:45.101Z,47.94
2018-01-29T08:47:47.563Z,47.90
2018-01-29T08:48:50.043Z,47.78
2018-01-29T08:49:52.549Z,47.70
2018-01-29T08:50:55.012Z,47.53
2018-01-29T08:51:57.475Z,47.57
2018-01-29T08:52:59.946Z,47.45
2018-01-29T08:54:02.427Z,47.47
2018-01-29T08:55:04.911Z,47.45
2018-01-29T08:56:07.389Z,47.47
2018-01-29T08:57:09.851Z,47.42
2018-01-29T08:58:12.326Z,47.38
2018-01-29T08:59:14.786Z,47.40
2018-01-29T09:00:17.278Z,47.43
2018-01-29T09:01:19.760Z,47.36
2018-01-29T09:02:22.410Z,47.31
2018-01-29T09:03:24.874Z,47.35
2018-01-29T09:04:27.353Z,47.32
2018-01-29T09:05:29.849Z,47.35
2018-01-29T09:06:32.318Z,47.27
2018-01-29T09:07:34.797Z,47.23
2018-01-29T09:08:37.285Z,47.24
2018-01-29T09:09:39.750Z,47.33
2018-01-29T09:10:42.251Z,47.40
2018-01-29T09:11:44.714Z,47.33
2018-01-29T09:12:47.179Z,47.21
2018-01-29T09:13:49.642Z,47.36
2018-01-29T09:14:52.121Z,47.35
2018-01-29T09:15:54.633Z,47.39
2018-01-29T09:16:57.102Z,47.63
2018-01-29T09:17:59.567Z,47.65
2018-01-29T09:19:02.043Z,47.78
2018-01-29T09:20:04.533Z,48.07
2018-01-29T09:21:07.037Z,48.14
2018-01-29T09:22:09.512Z,48.18
2018-01-29T09:23:11.983Z,48.18
2018-01-29T09:24:14.488Z,48.08
2018-01-29T09:25:17.001Z,48.10
2018-01-29T09:26:19.536Z,48.11
2018-01-29T09:27:22.031Z,48.12
2018-01-29T09:28:24.565Z,48.14
2018-01-29T09:29:27.056Z,48.13
2018-01-29T09:30:29.566Z,48.11
2018-01-29T09:31:32.070Z,48.00
2018-01-29T09:32:34.559Z,47.79
2018-01-29T09:33:37.058Z,47.58
2018-01-29T09:34:39.569Z,47.44
2018-01-29T09:35:42.063Z,47.39
2018-01-29T09:36:44.557Z,47.27
2018-01-29T09:37:47.270Z,47.20
2018-01-29T09:38:49.732Z,47.13
2018-01-29T09:39:52.219Z,47.14
2018-01-29T09:40:54.841Z,47.14
2018-01-29T09:41:57.427Z,47.20
2018-01-29T09:42:59.935Z,47.47
2018-01-29T09:44:02.414Z,47.53
2018-01-29T09:45:04.905Z,47.59
2018-01-29T09:46:07.729Z,47.62
2018-01-29T09:47:10.313Z,47.67
2018-01-29T09:48:12.838Z,47.71
2018-01-29T09:49:15.315Z,47.76
2018-01-29T09:50:17.809Z,47.84
2018-01-29T09:51:20.271Z,47.98
2018-01-29T09:52:22.769Z,48.08
2018-01-29T09:53:25.236Z,48.19
2018-01-29T09:54:27.699Z,48.34
2018-01-29T09:55:30.270Z,48.43
2018-01-29T09:56:32.907Z,48.52
2018-01-29T09:57:35.391Z,48.54
2018-01-29T09:58:37.880Z,48.54
2018-01-29T09:59:40.347Z,48.49
2018-01-29T10:00:42.826Z,48.43
2018-01-29T10:01:45.286Z,48.40
2018-01-29T10:02:48.093Z,48.33
2018-01-29T10:03:50.557Z,48.26
2018-01-29T10:04:53.038Z,48.16
2018-01-29T10:05:55.498Z,48.11
2018-01-29T10:06:57.958Z,48.09
2018-01-29T10:08:00.434Z,48.07
2018-01-29T10:09:02.902Z,48.05
2018-01-29T10:10:05.358Z,48.05
2018-01-29T10:11:07.837Z,48.03
2018-01-29T10:12:10.299Z,48.05
2018-01-29T10:13:12.785Z,48.10
2018-01-29T10:14:15.275Z,48.18
2018-01-29T10:15:17.755Z,48.28
2018-01-29T10:16:20.217Z,48.29
2018-01-29T10:17:22.678Z,48.41
2018-01-29T10:18:25.158Z,48.51
2018-01-29T10:19:27.638Z,48.66
2018-01-29T10:20:30.103Z,48.72
2018-01-29T10:21:32.562Z,48.79
2018-01-29T10:22:35.022Z,48.85
2018-01-29T10:23:37.548Z,48.94
2018-01-29T10:24:40.027Z,49.04
2018-01-29T10:25:42.490Z,49.12
2018-01-29T10:26:44.990Z,49.19
2018-01-29T10:27:47.455Z,49.28
2018-01-29T10:28:49.946Z,49.37
2018-01-29T10:29:52.406Z,49.43
2018-01-29T10:30:54.863Z,49.48
2018-01-29T10:31:57.344Z,49.56
2018-01-29T10:32:59.807Z,49.62
2018-01-29T10:34:02.319Z,49.69
2018-01-29T10:35:04.784Z,49.75
2018-01-29T10:36:07.250Z,49.78
2018-01-29T10:37:09.721Z,49.82
2018-01-29T10:38:12.186Z,49.88
2018-01-29T10:39:14.689Z,49.91
2018-01-29T10:40:17.169Z,49.94
2018-01-29T10:41:19.645Z,49.93
2018-01-29T10:42:22.116Z,49.84
2018-01-29T10:43:24.570Z,49.79
2018-01-29T10:44:27.073Z,49.70
2018-01-29T10:45:29.539Z,49.51
2018-01-29T10:46:32.019Z,49.33
2018-01-29T10:47:34.501Z,49.22
2018-01-29T10:48:36.958Z,49.18
2018-01-29T10:49:39.438Z,49.13
2018-01-29T10:50:41.954Z,49.08
2018-01-29T10:51:44.429Z,49.02
2018-01-29T10:52:46.891Z,49.02
2018-01-29T10:53:49.364Z,49.01
2018-01-29T10:54:51.850Z,49.03
2018-01-29T10:55:54.364Z,49.10
2018-01-29T10:56:56.833Z,49.13
2018-01-29T10:57:59.304Z,49.17
2018-01-29T10:59:01.776Z,49.22
2018-01-29T11:00:04.289Z,49.33
2018-01-29T11:01:12.333Z,49.35
2018-01-29T11:02:14.798Z,49.37
2018-01-29T11:03:17.262Z,49.38
2018-01-29T11:04:19.724Z,49.40
2018-01-29T11:05:22.225Z,49.50
2018-01-29T11:06:24.719Z,49.58
2018-01-29T11:07:27.222Z,49.58
2018-01-29T11:08:29.687Z,49.60
2018-01-29T11:09:32.165Z,49.65
2018-01-29T11:10:34.662Z,49.70
2018-01-29T11:11:37.124Z,49.83
2018-01-29T11:12:39.609Z,49.90
2018-01-29T11:13:42.074Z,49.98
2018-01-29T11:14:44.552Z,50.07
2018-01-29T11:15:47.042Z,50.02
2018-01-29T11:16:49.525Z,50.06
2018-01-29T11:17:52.004Z,49.93
2018-01-29T11:18:54.493Z,49.80
2018-01-29T11:19:56.976Z,49.59
2018-01-29T11:20:59.475Z,49.46
2018-01-29T11:22:02.071Z,49.30
2018-01-29T11:23:04.554Z,49.22
2018-01-29T11:24:07.037Z,49.09
2018-01-29T11:25:09.502Z,49.08
2018-01-29T11:26:12.001Z,49.02
2018-01-29T11:27:14.477Z,49.05
2018-01-29T11:28:16.972Z,49.08
2018-01-29T11:29:19.461Z,49.08
2018-01-29T11:30:21.946Z,49.08
2018-01-29T11:31:24.435Z,49.12
2018-01-29T11:32:26.925Z,49.14
2018-01-29T11:33:29.417Z,49.21
2018-01-29T11:34:31.886Z,49.29
2018-01-29T11:35:34.370Z,49.33
2018-01-29T11:36:36.876Z,49.38
2018-01-29T11:37:39.365Z,49.43
2018-01-29T11:38:41.858Z,49.49
2018-01-29T11:39:44.334Z,49.54
2018-01-29T11:40:46.856Z,49.64
2018-01-29T11:41:49.329Z,49.70
2018-01-29T11:42:51.817Z,49.77
2018-01-29T11:43:54.316Z,49.85
2018-01-29T11:44:56.786Z,49.96
2018-01-29T11:45:59.254Z,50.05
2018-01-29T11:47:01.761Z,50.18
2018-01-29T11:48:04.226Z,50.24
2018-01-29T11:49:06.712Z,50.30
2018-01-29T11:50:09.201Z,50.29
2018-01-29T11:51:11.671Z,50.30
2018-01-29T11:52:14.173Z,50.32
2018-01-29T11:53:16.643Z,50.37
2018-01-29T11:54:19.118Z,50.41
2018-01-29T11:55:21.582Z,50.42
2018-01-29T11:56:24.052Z,50.45
2018-01-29T11:57:26.568Z,50.48
2018-01-29T11:58:29.042Z,50.52
2018-01-29T11:59:31.528Z,50.53
2018-01-29T12:00:33.994Z,50.59
2018-01-29T12:01:36.469Z,50.71
2018-01-29T12:02:38.983Z,50.83
2018-01-29T12:03:41.458Z,50.85
2018-01-29T12:04:43.932Z,50.89
2018-01-29T12:05:46.417Z,50.87
2018-01-29T12:06:48.898Z,50.85
2018-01-29T12:07:51.387Z,50.91
2018-01-29T12:08:53.873Z,50.93
2018-01-29T12:09:56.364Z,50.79
2018-01-29T12:10:58.835Z,50.76
2018-01-29T12:12:01.307Z,50.53
2018-01-29T12:13:03.812Z,50.40
2018-01-29T12:14:06.278Z,50.22
2018-01-29T12:15:08.751Z,50.11
2018-01-29T12:16:11.237Z,50.06
2018-01-29T12:17:13.710Z,49.97
2018-01-29T12:18:16.455Z,49.93
2018-01-29T12:19:18.930Z,49.83
2018-01-29T12:20:21.409Z,49.82
2018-01-29T12:21:23.897Z,49.81
2018-01-29T12:22:26.362Z,49.72
2018-01-29T12:23:28.870Z,49.82
2018-01-29T12:24:31.343Z,49.81
2018-01-29T12:25:33.828Z,49.82
2018-01-29T12:26:36.296Z,49.85
2018-01-29T12:27:38.793Z,49.87
2018-01-29T12:28:41.304Z,49.87
2018-01-29T12:29:43.771Z,49.92
2018-01-29T12:30:46.243Z,49.91
2018-01-29T12:31:48.735Z,49.96
2018-01-29T12:32:51.220Z,49.97
2018-01-29T12:33:53.724Z,50.00
2018-01-29T12:34:56.237Z,50.01
2018-01-29T12:35:58.727Z,50.05
2018-01-29T12:37:01.195Z,50.10
2018-01-29T12:38:03.669Z,50.19
2018-01-29T12:39:06.162Z,50.15
2018-01-29T12:40:08.649Z,49.97
2018-01-29T12:41:11.129Z,49.96
2018-01-29T12:42:13.610Z,50.05
2018-01-29T12:43:16.095Z,50.25
2018-01-29T12:44:18.583Z,50.68
2018-01-29T12:45:21.068Z,51.83
2018-01-29T12:46:23.540Z,53.23
2018-01-29T12:47:26.096Z,52.22
2018-01-29T12:48:28.562Z,51.85
2018-01-29T12:49:31.060Z,51.68
2018-01-29T12:50:33.543Z,51.61
2018-01-29T12:51:36.026Z,51.56
2018-01-29T12:52:38.495Z,51.40
2018-01-29T12:53:40.981Z,51.09
2018-01-29T12:54:43.471Z,50.68
2018-01-29T12:55:45.949Z,50.44
2018-01-29T12:56:48.418Z,50.28
2018-01-29T12:57:50.905Z,50.10
2018-01-29T12:58:53.390Z,49.68
2018-01-29T12:59:55.921Z,49.48
2018-01-29T13:00:58.387Z,49.16
2018-01-29T13:02:00.871Z,48.63
2018-01-29T13:03:03.357Z,47.81
2018-01-29T13:04:05.846Z,47.34
2018-01-29T13:05:08.336Z,47.69
2018-01-29T13:06:10.819Z,47.73
2018-01-29T13:07:13.306Z,47.94
2018-01-29T13:08:15.789Z,48.40
2018-01-29T13:09:18.325Z,48.61
2018-01-29T13:10:20.805Z,48.76
2018-01-29T13:11:23.272Z,48.88
2018-01-29T13:12:25.739Z,48.86
2018-01-29T13:13:28.221Z,48.77
2018-01-29T13:14:30.739Z,48.80
2018-01-29T13:15:33.245Z,48.91
2018-01-29T13:16:35.710Z,48.93
2018-01-29T13:17:38.175Z,48.99
2018-01-29T13:18:40.661Z,49.02
2018-01-29T13:19:43.132Z,49.09
2018-01-29T13:20:45.640Z,49.15
2018-01-29T13:21:48.146Z,49.23
2018-01-29T13:22:50.684Z,49.32
2018-01-29T13:23:53.173Z,49.33
2018-01-29T13:24:55.658Z,49.43
2018-01-29T13:25:58.194Z,49.48
2018-01-29T13:27:00.673Z,49.56